Time;durP1;ratioP1;P1;durP2;ratioP2;P2;SDS_P1;SDS_P2;PMS_P1;PMS_P2;Temp;Humidity;BMP_temperature;BMP_pressure;BME280_temperature;BME280_humidity;BME280_pressure;Samples;Min_cycle;Max_cycle;Signal;HPM_P1;HPM_P2
2022/01/09 00:00:09;;;;;;;209.50;87.85;;;0.10;99.90;;;-0.19;64.59;97792.41;4963098;28;20049;-80
2022/01/09 00:02:55;;;;;;;213.82;89.97;;;0.10;99.90;;;-0.13;64.15;97786.13;4969026;28;20482;-80
2022/01/09 00:05:21;;;;;;;205.90;87.38;;;0.10;99.90;;;-0.12;64.40;97778.97;4965955;28;20073;-80
2022/01/09 00:07:47;;;;;;;190.65;84.15;;;0.10;99.90;;;-0.17;64.11;97782.31;4983372;28;20143;-80
2022/01/09 00:10:13;;;;;;;210.73;86.75;;;0.10;99.90;;;-0.22;63.76;97777.69;4962781;28;20110;-80
2022/01/09 00:12:39;;;;;;;219.35;89.40;;;0.10;99.90;;;-0.27;63.89;97774.88;4981407;28;20080;-80
2022/01/09 00:15:06;;;;;;;205.45;88.97;;;0.00;99.90;;;-0.36;63.67;97765.59;4977322;28;20038;-80
2022/01/09 00:17:32;;;;;;;216.32;89.70;;;0.00;99.90;;;-0.46;63.93;97768.00;4968010;28;20437;-80
2022/01/09 00:19:58;;;;;;;193.75;85.65;;;-0.10;99.90;;;-0.57;64.29;97760.81;4965903;28;20078;-80
2022/01/09 00:22:35;;;;;;;196.60;82.32;;;-0.20;99.90;;;-0.62;64.68;97760.66;4961864;28;20050;-80
2022/01/09 00:25:01;;;;;;;189.80;81.05;;;-0.30;99.90;;;-0.61;64.63;97754.28;4980235;28;20058;-80
2022/01/09 00:27:28;;;;;;;202.82;85.32;;;-0.30;99.90;;;-0.57;64.37;97747.47;4983980;28;20038;-80
2022/01/09 00:29:53;;;;;;;192.48;80.57;;;-0.40;99.90;;;-0.63;64.03;97749.22;4966360;28;20089;-80
2022/01/09 00:32:20;;;;;;;216.57;91.22;;;-0.40;99.90;;;-0.65;63.99;97748.63;4950289;28;20065;-80
2022/01/09 00:34:46;;;;;;;220.93;90.50;;;-0.40;99.90;;;-0.71;63.83;97746.88;4929800;28;20744;-80
2022/01/09 00:37:11;;;;;;;215.38;86.25;;;-0.50;99.90;;;-0.80;63.48;97745.56;4958887;28;20564;-79
2022/01/09 00:39:38;;;;;;;205.05;81.78;;;-0.50;99.90;;;-0.92;63.11;97745.50;4964401;28;20086;-79
2022/01/09 00:42:04;;;;;;;181.70;74.70;;;-0.60;99.90;;;-1.03;64.58;97732.97;4974862;28;20062;-80
2022/01/09 00:44:30;;;;;;;183.88;73.75;;;-0.70;99.90;;;-1.11;64.20;97739.41;4982094;28;20577;-80
2022/01/09 00:47:00;;;;;;;203.30;82.50;;;-0.80;99.90;;;-1.21;64.18;97731.16;4977367;28;20157;-79
2022/01/09 00:49:26;;;;;;;205.77;81.25;;;-0.90;99.90;;;-1.30;64.99;97727.97;4976198;28;20054;-80
2022/01/09 00:51:52;;;;;;;204.60;89.18;;;-1.00;99.90;;;-1.29;64.84;97726.94;4979245;28;20046;-80
2022/01/09 00:54:18;;;;;;;204.77;80.40;;;-1.00;99.90;;;-1.33;65.37;97728.44;4973954;28;20039;-80
2022/01/09 00:56:44;;;;;;;191.45;81.35;;;-1.00;99.90;;;-1.35;65.12;97718.03;4977142;28;20118;-80
2022/01/09 00:59:10;;;;;;;196.10;79.63;;;-1.10;99.90;;;-1.38;64.90;97714.97;4977412;28;20098;-80
2022/01/09 01:01:36;;;;;;;187.75;80.55;;;-1.10;99.90;;;-1.39;65.12;97718.69;4961287;28;20101;-80
2022/01/09 01:04:02;;;;;;;214.85;90.40;;;-1.10;99.90;;;-1.38;65.88;97710.47;4962094;28;20173;-80
2022/01/09 01:06:28;;;;;;;216.18;84.78;;;-1.00;99.90;;;-1.36;66.56;97712.91;4968343;28;20054;-80
2022/01/09 01:08:56;;;;;;;200.38;80.05;;;-1.10;99.90;;;-1.34;66.82;97705.53;4963357;28;20121;-80
2022/01/09 01:11:25;;;;;;;181.00;74.28;;;-1.00;99.90;;;-1.32;66.76;97708.78;4965377;28;20042;-80
2022/01/09 01:13:51;;;;;;;187.70;75.43;;;-1.00;99.90;;;-1.22;67.14;97706.41;4958564;28;20866;-80
2022/01/09 01:16:17;;;;;;;260.67;76.50;;;-1.00;99.90;;;-1.12;66.55;97697.84;4976298;28;20049;-80
2022/01/09 01:18:44;;;;;;;171.02;75.70;;;-0.90;99.90;;;-1.01;66.80;97698.97;4960959;28;20489;-80
2022/01/09 01:21:11;;;;;;;165.85;71.90;;;-0.80;99.90;;;-0.98;66.69;97695.84;4960894;28;20057;-79
2022/01/09 01:23:37;;;;;;;173.13;71.10;;;-0.70;99.90;;;-0.91;66.46;97691.25;4977664;28;20476;-80
2022/01/09 01:26:03;;;;;;;160.77;69.82;;;-0.70;99.90;;;-0.86;66.48;97691.38;4977107;28;20065;-80
2022/01/09 01:28:30;;;;;;;156.95;68.20;;;-0.60;99.90;;;-0.78;66.65;97683.06;4980191;28;20073;-80
2022/01/09 01:30:56;;;;;;;176.57;72.18;;;-0.50;99.90;;;-0.71;66.45;97682.97;4960479;28;20038;-79
2022/01/09 01:33:22;;;;;;;165.00;71.63;;;-0.50;99.90;;;-0.64;66.08;97680.19;4972760;28;20061;-80
2022/01/09 01:35:48;;;;;;;172.98;74.60;;;-0.40;99.90;;;-0.59;66.08;97682.97;4978878;28;20074;-79
2022/01/09 01:38:14;;;;;;;182.90;76.55;;;-0.30;99.90;;;-0.55;65.89;97681.47;4959366;28;20038;-80
2022/01/09 01:40:43;;;;;;;170.48;74.40;;;-0.30;99.90;;;-0.42;65.66;97681.25;4982241;28;20126;-80
2022/01/09 01:43:09;;;;;;;165.27;69.13;;;-0.20;99.90;;;-0.33;65.79;97679.88;4961512;28;20039;-80
2022/01/09 01:45:35;;;;;;;175.48;72.10;;;-0.10;99.90;;;-0.22;65.55;97671.06;4960703;28;20053;-80
2022/01/09 01:48:07;;;;;;;187.35;76.13;;;-0.10;99.90;;;-0.18;65.30;97665.28;4932156;28;20482;-80
2022/01/09 01:50:37;;;;;;;201.85;85.45;;;0.00;99.90;;;-0.15;65.39;97667.47;4976755;28;20042;-80
2022/01/09 01:53:10;;;;;;;183.02;82.68;;;0.10;99.90;;;-0.09;65.15;97659.38;4975615;28;20073;-79
2022/01/09 01:55:37;;;;;;;197.07;76.40;;;0.10;99.90;;;-0.07;65.19;97664.47;4980477;28;20057;-80
2022/01/09 01:58:10;;;;;;;177.55;72.70;;;0.20;99.90;;;-0.15;65.04;97657.63;4991530;28;20104;-80
2022/01/09 02:00:38;;;;;;;173.60;71.85;;;0.20;99.90;;;-0.16;65.00;97655.19;4960086;28;20034;-80
2022/01/09 02:03:04;;;;;;;151.55;67.30;;;0.20;99.90;;;-0.14;65.15;97650.44;4975734;28;20050;-80
2022/01/09 02:05:30;;;;;;;163.98;66.15;;;0.20;99.90;;;-0.12;65.03;97648.38;4959890;28;20093;-79
2022/01/09 02:07:58;;;;;;;165.80;68.97;;;0.20;99.90;;;-0.07;64.73;97640.47;4968001;28;20070;-80
2022/01/09 02:10:24;;;;;;;150.88;65.85;;;0.20;99.90;;;-0.08;64.75;97628.19;4960691;28;20096;-79
2022/01/09 02:12:52;;;;;;;158.55;70.22;;;0.20;99.90;;;-0.17;64.71;97626.94;4973076;28;20058;-79
2022/01/09 02:15:36;;;;;;;151.02;66.38;;;0.20;99.90;;;-0.16;64.92;97623.22;4973431;28;20042;-79
2022/01/09 02:18:14;;;;;;;147.55;68.60;;;0.20;99.90;;;-0.07;64.34;97630.63;4954918;28;20066;-80
2022/01/09 02:20:40;;;;;;;144.65;63.15;;;0.20;99.90;;;0.00;64.38;97633.19;4970230;28;20058;-79
2022/01/09 02:23:07;;;;;;;148.43;65.35;;;0.20;99.90;;;-0.01;64.13;97634.19;4956986;28;20125;-79
2022/01/09 02:25:35;;;;;;;153.60;64.80;;;0.30;99.90;;;-0.02;64.21;97627.25;4964405;28;20046;-80
2022/01/09 02:28:01;;;;;;;161.50;69.32;;;0.30;99.90;;;0.02;64.40;97622.25;4957129;28;20073;-80
2022/01/09 02:30:27;;;;;;;151.13;68.55;;;0.30;99.90;;;0.08;64.32;97616.00;4979915;28;20042;-80
2022/01/09 02:32:53;;;;;;;147.50;65.95;;;0.30;99.90;;;0.06;64.27;97621.56;4991282;28;20043;-80
2022/01/09 02:35:23;;;;;;;153.43;65.32;;;0.30;99.90;;;0.12;64.02;97622.47;4978766;28;20073;-79
2022/01/09 02:37:49;;;;;;;142.05;62.85;;;0.30;99.90;;;0.12;63.93;97628.59;4957366;28;20034;-80
2022/01/09 02:40:15;;;;;;;157.65;69.75;;;0.30;99.90;;;0.15;64.21;97622.00;4971378;28;20089;-80
2022/01/09 02:42:41;;;;;;;152.88;66.90;;;0.40;99.90;;;0.18;63.67;97622.34;4959639;28;20092;-80
2022/01/09 02:45:07;;;;;;;171.93;69.65;;;0.40;99.90;;;0.21;63.76;97621.88;4989616;28;20066;-80
2022/01/09 02:47:34;;;;;;;167.50;72.68;;;0.40;99.90;;;0.24;63.52;97619.78;4974621;28;20461;-80
2022/01/09 02:50:55;;;;;;;175.30;72.95;;;0.40;99.90;;;0.18;63.83;97614.34;4957441;28;20042;-80
2022/01/09 02:52:59;;;;;;;167.95;77.07;;;0.40;99.90;;;0.18;63.45;97602.88;4975403;28;20597;-80
2022/01/09 02:55:26;;;;;;;153.43;71.05;;;0.40;99.90;;;0.15;63.76;97598.84;4934244;28;20656;-80
2022/01/09 02:57:55;;;;;;;156.45;67.65;;;0.40;99.90;;;0.22;63.58;97588.81;4990435;28;20046;-80
2022/01/09 03:00:27;;;;;;;158.43;70.00;;;0.40;99.90;;;0.26;63.23;97591.03;4970243;28;20132;-80
2022/01/09 03:02:53;;;;;;;156.45;70.13;;;0.50;99.90;;;0.26;63.52;97599.84;4959012;28;20073;-79
2022/01/09 03:05:19;;;;;;;153.30;69.18;;;0.50;99.90;;;0.20;63.61;97590.09;4979357;28;20034;-80
2022/01/09 03:07:45;;;;;;;162.02;70.80;;;0.50;99.90;;;0.20;63.79;97587.44;4972014;28;20492;-80
2022/01/09 03:10:13;;;;;;;140.63;64.53;;;0.50;99.90;;;0.16;63.57;97575.63;4973477;28;20038;-80
2022/01/09 03:12:39;;;;;;;147.75;65.32;;;0.40;99.90;;;0.18;63.60;97584.22;4960284;28;20053;-80
2022/01/09 03:15:05;;;;;;;148.43;66.38;;;0.40;99.90;;;0.21;63.70;97579.22;4948636;28;20116;-80
2022/01/09 03:17:31;;;;;;;149.40;66.18;;;0.40;99.90;;;0.22;63.82;97586.16;4962660;28;20121;-80
2022/01/09 03:19:57;;;;;;;140.68;64.35;;;0.50;99.90;;;0.21;64.24;97584.53;4958851;28;20093;-80
2022/01/09 03:22:23;;;;;;;145.27;66.00;;;0.50;99.90;;;0.24;63.54;97577.91;4975317;28;20080;-80
2022/01/09 03:24:49;;;;;;;144.45;66.88;;;0.50;99.90;;;0.14;64.06;97570.53;4962627;28;20092;-80
2022/01/09 03:27:16;;;;;;;149.80;64.70;;;0.50;99.90;;;0.17;63.65;97562.03;4944856;28;20065;-80
2022/01/09 03:29:41;;;;;;;156.13;69.78;;;0.50;99.90;;;0.07;63.98;97561.03;4962957;28;20043;-80
2022/01/09 03:32:08;;;;;;;151.25;68.18;;;0.50;99.90;;;0.13;63.94;97550.25;4961159;28;20062;-80
2022/01/09 03:34:34;;;;;;;146.95;66.20;;;0.40;99.90;;;0.09;64.20;97548.28;4976321;28;20051;-80
2022/01/09 03:37:00;;;;;;;151.45;64.03;;;0.40;99.90;;;-0.10;64.05;97536.97;4961003;28;20074;-80
2022/01/09 03:39:26;;;;;;;151.52;64.70;;;0.40;99.90;;;-0.18;64.44;97551.47;4975568;28;20120;-79
2022/01/09 03:41:54;;;;;;;142.35;64.50;;;0.30;99.90;;;-0.31;64.37;97541.88;4949341;28;20046;-79
2022/01/09 03:44:20;;;;;;;147.27;64.43;;;0.20;99.90;;;-0.38;63.89;97541.22;4960107;28;20437;-79
2022/01/09 03:46:47;;;;;;;144.07;65.10;;;0.00;99.90;;;-0.48;63.93;97533.00;4962587;28;20541;-80
2022/01/09 03:49:13;;;;;;;162.55;66.57;;;-0.10;99.90;;;-0.61;63.45;97530.56;4978582;28;20104;-80
2022/01/09 03:51:39;;;;;;;148.07;65.70;;;-0.20;99.90;;;-0.69;63.22;97534.38;4959726;28;20043;-80
2022/01/09 03:54:05;;;;;;;166.07;69.40;;;-0.40;99.90;;;-0.86;63.51;97526.31;4964353;28;20042;-79
2022/01/09 03:56:32;;;;;;;180.52;72.82;;;-0.50;99.90;;;-1.01;63.61;97526.75;4974648;28;20137;-80
2022/01/09 03:58:58;;;;;;;161.52;74.30;;;-0.70;99.90;;;-1.17;63.70;97527.41;4963010;28;20043;-80
2022/01/09 04:01:24;;;;;;;173.27;70.65;;;-0.80;99.90;;;-1.36;63.58;97527.50;4975485;28;20094;-80
2022/01/09 04:03:50;;;;;;;174.77;71.28;;;-0.90;99.90;;;-1.51;63.57;97524.47;4964898;28;20144;-80
2022/01/09 04:06:17;;;;;;;153.32;69.65;;;-1.10;99.90;;;-1.65;64.11;97520.41;4965335;28;20046;-80
2022/01/09 04:08:43;;;;;;;159.48;70.78;;;-1.30;99.90;;;-1.83;64.04;97522.06;4957825;28;20534;-80
2022/01/09 04:11:09;;;;;;;170.57;69.45;;;-1.40;99.90;;;-1.97;64.12;97520.59;4977571;28;20039;-80
2022/01/09 04:13:37;;;;;;;169.52;71.55;;;-1.60;99.90;;;-2.11;64.29;97514.66;4974245;28;20054;-80
2022/01/09 04:16:04;;;;;;;154.30;70.88;;;-1.70;99.90;;;-2.27;64.65;97515.25;4976322;28;20045;-80
2022/01/09 04:18:31;;;;;;;168.50;69.65;;;-1.80;99.90;;;-2.49;65.18;97510.41;4956407;28;20050;-80
2022/01/09 04:20:57;;;;;;;170.35;70.97;;;-2.00;99.90;;;-2.57;64.95;97518.69;4958693;28;20358;-79
2022/01/09 04:23:24;;;;;;;155.95;67.93;;;-2.10;99.90;;;-2.66;65.39;97522.63;4978620;28;20043;-80
2022/01/09 04:25:50;;;;;;;174.13;71.18;;;-2.20;99.90;;;-2.77;65.69;97526.84;4981010;28;20038;-80
2022/01/09 04:28:16;;;;;;;156.13;67.50;;;-2.40;99.90;;;-2.89;66.59;97523.28;4962561;28;20172;-80
2022/01/09 04:30:43;;;;;;;162.85;69.28;;;-2.50;99.90;;;-3.04;65.79;97526.25;4986967;28;20045;-79
2022/01/09 04:33:10;;;;;;;162.10;66.03;;;-2.60;99.90;;;-3.10;65.93;97527.94;4962325;28;20045;-79
2022/01/09 04:35:37;;;;;;;169.07;68.70;;;-2.70;99.90;;;-3.21;65.67;97517.22;4964500;28;20046;-79
2022/01/09 04:38:03;;;;;;;155.27;64.68;;;-2.80;99.90;;;-3.30;66.52;97517.50;4978679;28;20254;-80
2022/01/09 04:40:29;;;;;;;153.18;66.57;;;-2.90;99.90;;;-3.34;66.26;97515.50;4960534;28;20062;-80
2022/01/09 04:42:58;;;;;;;146.18;62.50;;;-2.90;99.90;;;-3.42;65.98;97519.22;4966680;28;20401;-80
2022/01/09 04:45:26;;;;;;;160.88;65.72;;;-3.00;99.90;;;-3.52;65.88;97519.69;4962990;28;20125;-80
2022/01/09 04:47:54;;;;;;;137.10;62.50;;;-3.10;99.90;;;-3.59;65.83;97520.75;4965099;28;20038;-80
2022/01/09 04:50:24;;;;;;;146.48;62.58;;;-3.20;99.90;;;-3.69;65.73;97517.78;4978548;28;20597;-79
2022/01/09 04:52:59;;;;;;;145.88;62.45;;;-3.30;99.90;;;-3.79;66.50;97519.06;4960777;28;20073;-80
2022/01/09 04:55:29;;;;;;;160.18;68.38;;;-3.40;99.90;;;-3.88;66.24;97524.84;4962511;28;20821;-79
2022/01/09 04:57:55;;;;;;;148.65;63.40;;;-3.40;99.90;;;-3.97;66.20;97529.53;4978375;28;20070;-80
2022/01/09 05:00:21;;;;;;;148.10;65.00;;;-3.60;99.90;;;-4.04;65.98;97528.78;4964207;28;20069;-80
2022/01/09 05:02:47;;;;;;;153.25;65.07;;;-3.60;99.90;;;-4.05;66.64;97529.78;4941620;28;20493;-80
2022/01/09 05:05:14;;;;;;;436.17;84.10;;;-3.70;99.90;;;-4.12;66.82;97519.25;4981161;28;20038;-80
2022/01/09 05:07:39;;;;;;;160.45;70.65;;;-3.70;99.90;;;-4.14;66.79;97521.28;4960512;28;20138;-80
2022/01/09 05:10:07;;;;;;;165.15;69.88;;;-3.80;99.90;;;-4.16;67.02;97524.13;4960398;28;20038;-79
2022/01/09 05:12:33;;;;;;;158.60;64.82;;;-3.80;99.90;;;-4.18;66.89;97531.47;4971897;28;20147;-79
2022/01/09 05:14:59;;;;;;;148.93;65.70;;;-3.80;99.90;;;-4.19;67.12;97531.72;4959952;28;20031;-79
2022/01/09 05:17:25;;;;;;;146.07;62.85;;;-3.80;99.90;;;-4.18;66.73;97520.06;4961202;28;20038;-79
2022/01/09 05:19:57;;;;;;;161.00;65.22;;;-3.80;99.90;;;-4.19;66.77;97535.16;4961075;28;20049;-79
2022/01/09 05:22:27;;;;;;;160.43;65.47;;;-3.80;99.90;;;-4.15;66.89;97536.38;4957636;28;20046;-79
2022/01/09 05:24:54;;;;;;;155.30;68.60;;;-3.80;99.90;;;-4.12;67.73;97540.44;4968450;28;20659;-79
2022/01/09 05:27:23;;;;;;;148.45;65.57;;;-3.80;99.90;;;-4.02;67.85;97550.56;4958915;28;20039;-79
2022/01/09 05:29:49;;;;;;;145.82;64.20;;;-3.70;99.90;;;-3.99;68.32;97539.56;4945044;28;20472;-79
2022/01/09 05:32:15;;;;;;;156.27;64.88;;;-3.60;99.90;;;-3.87;68.53;97545.00;4981217;28;20169;-79
2022/01/09 05:34:41;;;;;;;157.70;68.18;;;-3.50;99.90;;;-3.79;68.38;97550.88;4969086;28;20069;-79
2022/01/09 05:37:07;;;;;;;157.43;68.53;;;-3.50;99.90;;;-3.74;68.53;97542.25;4956748;28;20138;-79
2022/01/09 05:39:33;;;;;;;156.32;71.00;;;-3.40;99.90;;;-3.66;68.93;97551.78;4962626;28;20501;-79
2022/01/09 05:42:02;;;;;;;173.38;72.28;;;-3.30;99.90;;;-3.57;68.94;97553.97;4944920;28;20039;-79
2022/01/09 05:44:28;;;;;;;164.80;74.38;;;-3.30;99.90;;;-3.46;69.13;97556.97;4959957;28;20129;-79
2022/01/09 05:46:54;;;;;;;171.88;74.90;;;-3.20;99.90;;;-3.28;68.81;97560.53;4978586;28;20066;-79
2022/01/09 05:49:20;;;;;;;192.18;78.30;;;-3.10;99.90;;;-3.11;68.71;97560.00;4957733;28;20062;-79
2022/01/09 05:51:46;;;;;;;171.65;78.60;;;-2.90;99.90;;;-2.97;68.58;97564.16;4976321;28;20074;-79
2022/01/09 05:54:12;;;;;;;179.15;77.05;;;-2.70;99.90;;;-2.86;68.69;97558.13;4957079;28;20121;-80
2022/01/09 05:56:38;;;;;;;180.10;79.55;;;-2.60;99.90;;;-2.70;68.50;97556.75;4958203;28;20081;-79
2022/01/09 05:59:04;;;;;;;192.13;80.53;;;-2.40;99.90;;;-2.58;68.68;97551.53;4972774;28;20066;-79
2022/01/09 06:01:30;;;;;;;184.02;78.80;;;-2.40;99.90;;;-2.43;68.23;97548.53;4953946;28;20042;-79
2022/01/09 06:03:56;;;;;;;173.43;76.32;;;-2.20;99.90;;;-2.42;68.43;97545.66;4972387;28;20048;-79
2022/01/09 06:06:22;;;;;;;184.88;79.45;;;-2.10;99.90;;;-2.38;68.36;97551.34;4956062;28;20131;-79
2022/01/09 06:08:48;;;;;;;162.93;73.53;;;-2.00;99.90;;;-2.23;68.38;97546.47;4961382;28;20609;-79
2022/01/09 06:11:14;;;;;;;183.63;74.38;;;-1.90;99.90;;;-2.11;68.19;97538.56;4957127;28;20073;-79
2022/01/09 06:13:40;;;;;;;173.13;76.50;;;-1.80;99.90;;;-1.96;67.96;97543.47;4973327;28;20520;-79
2022/01/09 06:16:06;;;;;;;169.68;74.78;;;-1.70;99.90;;;-1.90;68.02;97544.44;4955566;28;20066;-79
2022/01/09 06:18:32;;;;;;;174.18;74.82;;;-1.60;99.90;;;-1.84;67.79;97546.19;4957728;28;20064;-78
2022/01/09 06:20:58;;;;;;;176.35;76.03;;;-1.50;99.90;;;-1.77;67.71;97542.41;4957059;28;20046;-79
2022/01/09 06:23:24;;;;;;;190.50;75.15;;;-1.40;99.90;;;-1.70;67.65;97545.00;4975257;28;20475;-78
2022/01/09 06:25:51;;;;;;;167.30;76.72;;;-1.40;99.90;;;-1.67;67.61;97551.72;4973468;28;20122;-79
2022/01/09 06:28:17;;;;;;;171.32;77.05;;;-1.30;99.90;;;-1.69;67.77;97549.25;4993997;28;20727;-78
2022/01/09 06:30:43;;;;;;;155.30;76.35;;;-1.30;99.90;;;-1.62;67.68;97547.34;4957907;28;20121;-79
2022/01/09 06:33:09;;;;;;;163.35;73.00;;;-1.20;99.90;;;-1.58;67.56;97545.84;4984191;28;20042;-79
2022/01/09 06:35:35;;;;;;;159.75;75.07;;;-1.20;99.90;;;-1.52;67.54;97543.31;4977039;28;20113;-79
2022/01/09 06:38:01;;;;;;;163.40;75.15;;;-1.10;99.90;;;-1.46;67.49;97547.72;4958886;28;20538;-79
2022/01/09 06:40:27;;;;;;;158.98;72.75;;;-1.10;99.90;;;-1.37;67.69;97546.38;4973340;28;20066;-79
2022/01/09 06:42:53;;;;;;;167.27;74.25;;;-1.00;99.90;;;-1.36;67.36;97545.31;4959294;28;20070;-79
2022/01/09 06:45:22;;;;;;;177.38;76.13;;;-0.90;99.90;;;-1.32;67.31;97549.16;4956728;28;20121;-79
2022/01/09 06:47:48;;;;;;;167.88;75.43;;;-0.90;99.90;;;-1.25;66.98;97552.50;4958108;28;20524;-79
2022/01/09 06:50:15;;;;;;;169.40;72.68;;;-0.90;99.90;;;-1.18;66.71;97550.56;4972522;28;20055;-79
2022/01/09 06:52:41;;;;;;;169.40;77.10;;;-0.80;99.90;;;-1.11;66.94;97553.13;4969360;28;20501;-79
2022/01/09 06:55:08;;;;;;;173.93;77.47;;;-0.80;99.90;;;-1.05;67.08;97549.53;4959163;28;20048;-79
2022/01/09 06:57:34;;;;;;;163.10;77.47;;;-0.70;99.90;;;-0.94;66.58;97546.09;4957822;28;20549;-79
2022/01/09 07:00:00;;;;;;;159.43;73.63;;;-0.60;99.90;;;-0.86;66.60;97558.25;4956460;28;20042;-79
2022/01/09 07:02:26;;;;;;;171.23;77.68;;;-0.60;99.90;;;-0.82;66.44;97563.91;4962618;28;20146;-78
2022/01/09 07:04:52;;;;;;;177.48;73.55;;;-0.50;99.90;;;-0.75;66.88;97556.63;4958317;28;20081;-79
2022/01/09 07:07:18;;;;;;;171.52;76.28;;;-0.40;99.90;;;-0.66;66.23;97557.91;4940918;28;20053;-79
2022/01/09 07:09:44;;;;;;;176.65;76.50;;;-0.40;99.90;;;-0.66;66.00;97561.38;4959130;28;20378;-79
2022/01/09 07:12:10;;;;;;;165.00;73.97;;;-0.30;99.90;;;-0.59;66.19;97563.91;4973288;28;20486;-79
2022/01/09 07:14:37;;;;;;;167.32;73.95;;;-0.20;99.90;;;-0.52;66.20;97559.28;4975726;28;20042;-79
2022/01/09 07:17:03;;;;;;;172.48;76.22;;;-0.20;99.90;;;-0.52;66.37;97553.16;4960773;28;20398;-79
2022/01/09 07:19:29;;;;;;;179.68;77.43;;;-0.10;99.90;;;-0.56;66.11;97559.97;4975708;28;20046;-78
2022/01/09 07:21:55;;;;;;;168.52;71.82;;;-0.10;99.90;;;-0.41;66.06;97554.19;4976589;28;20053;-79
2022/01/09 07:24:21;;;;;;;175.55;77.10;;;-0.10;99.90;;;-0.33;65.51;97559.97;4953745;28;20038;-79
2022/01/09 07:26:47;;;;;;;158.50;72.22;;;0.00;99.90;;;-0.27;65.64;97556.38;4955324;28;20062;-79
2022/01/09 07:29:14;;;;;;;169.73;76.93;;;0.10;99.90;;;-0.17;65.19;97562.97;4959588;28;20117;-78
2022/01/09 07:31:39;;;;;;;171.40;76.07;;;0.20;99.90;;;-0.17;65.29;97558.44;4974692;28;20074;-79
2022/01/09 07:34:05;;;;;;;167.82;74.68;;;0.20;99.90;;;-0.03;65.05;97551.78;4956118;28;20125;-79
2022/01/09 07:36:32;;;;;;;161.90;76.82;;;0.30;99.90;;;-0.03;64.77;97548.31;4955096;28;20122;-79
2022/01/09 07:38:57;;;;;;;162.88;74.30;;;0.40;99.90;;;0.01;64.46;97549.47;4956175;28;20127;-79
2022/01/09 07:41:24;;;;;;;168.10;76.32;;;0.40;99.90;;;-0.04;64.06;97546.69;4956571;28;20077;-79
2022/01/09 07:43:50;;;;;;;164.02;77.60;;;0.50;99.90;;;-0.06;64.23;97552.25;4971528;28;20042;-79
2022/01/09 07:46:16;;;;;;;175.57;80.93;;;0.50;99.90;;;-0.11;64.19;97557.50;4979349;28;20192;-79
2022/01/09 07:48:42;;;;;;;183.18;76.65;;;0.50;99.90;;;-0.05;64.22;97545.91;4974131;28;20399;-79
2022/01/09 07:51:08;;;;;;;161.68;78.15;;;0.50;99.90;;;0.05;64.37;97550.63;4972349;28;20101;-79
2022/01/09 07:53:34;;;;;;;163.20;76.38;;;0.50;99.90;;;0.22;64.01;97554.13;4988875;28;20740;-78
2022/01/09 07:56:00;;;;;;;159.30;73.07;;;0.60;99.90;;;0.40;63.68;97550.47;4959944;28;20046;-79
2022/01/09 07:58:26;;;;;;;162.23;75.57;;;0.70;99.90;;;0.42;63.13;97552.91;4956887;28;20121;-79
2022/01/09 08:00:52;;;;;;;164.43;75.38;;;0.80;99.90;;;0.41;63.16;97545.97;4978839;28;20049;-79
2022/01/09 08:03:18;;;;;;;242.23;108.85;;;0.80;99.90;;;0.30;62.82;97550.28;4976972;28;20121;-79
2022/01/09 08:05:44;;;;;;;216.32;96.00;;;0.80;99.90;;;0.25;62.88;97550.19;4974530;28;20135;-79
2022/01/09 08:08:10;;;;;;;221.68;100.00;;;0.70;99.90;;;0.17;62.99;97546.03;4976023;28;20070;-79
2022/01/09 08:10:36;;;;;;;224.50;101.40;;;0.60;99.90;;;0.14;62.56;97537.72;4959475;28;20156;-79
2022/01/09 08:13:02;;;;;;;205.55;97.03;;;0.60;99.90;;;0.12;62.73;97547.81;4956994;28;20056;-79
2022/01/09 08:15:28;;;;;;;203.70;91.13;;;0.50;99.90;;;0.10;62.51;97536.56;4942471;28;20065;-79
2022/01/09 08:17:54;;;;;;;204.20;97.55;;;0.50;99.90;;;-0.02;62.76;97544.63;4958447;28;20386;-79
2022/01/09 08:20:20;;;;;;;233.43;105.40;;;0.50;99.90;;;-0.11;63.48;97535.34;4958862;28;20093;-79
2022/01/09 08:22:47;;;;;;;223.00;101.57;;;0.40;99.90;;;-0.15;63.29;97532.38;4955022;28;20043;-79
2022/01/09 08:25:14;;;;;;;206.50;100.80;;;0.30;99.90;;;-0.08;63.44;97537.53;4970548;28;20047;-79
2022/01/09 08:27:40;;;;;;;211.63;94.43;;;0.30;99.90;;;-0.09;63.59;97530.59;4958726;28;20164;-79
2022/01/09 08:30:07;;;;;;;168.77;82.22;;;0.30;99.90;;;-0.06;63.50;97536.25;4955512;28;20042;-79
2022/01/09 08:32:33;;;;;;;154.05;72.38;;;0.40;99.90;;;-0.04;63.34;97523.50;4959832;28;20462;-78
2022/01/09 08:35:00;;;;;;;145.50;66.25;;;0.40;99.90;;;-0.05;63.06;97519.25;4960013;28;20077;-80
2022/01/09 08:37:26;;;;;;;143.65;69.43;;;0.40;99.90;;;-0.05;62.95;97524.56;4975160;28;20047;-79
2022/01/09 08:39:52;;;;;;;150.23;67.50;;;0.30;99.90;;;-0.02;63.35;97525.97;4978552;28;20089;-79
2022/01/09 08:42:18;;;;;;;152.40;67.95;;;0.30;99.90;;;-0.01;62.84;97524.91;4964541;28;20125;-79
2022/01/09 08:44:44;;;;;;;156.50;70.50;;;0.30;99.90;;;0.00;62.80;97518.53;4973890;28;20184;-79
2022/01/09 08:47:10;;;;;;;141.50;65.90;;;0.40;99.90;;;0.01;63.07;97525.47;4970617;28;20046;-79
2022/01/09 08:49:36;;;;;;;145.70;67.53;;;0.40;99.90;;;0.04;62.63;97527.66;4956691;28;20035;-79
2022/01/09 08:52:03;;;;;;;141.00;68.70;;;0.40;99.90;;;0.07;63.01;97527.19;4968129;28;20057;-79
2022/01/09 08:54:29;;;;;;;149.85;68.28;;;0.40;99.90;;;0.12;62.87;97516.63;4973102;28;20078;-80
2022/01/09 08:56:56;;;;;;;152.48;70.43;;;0.50;99.90;;;0.14;62.45;97514.53;4959471;28;20030;-79
2022/01/09 08:59:22;;;;;;;153.20;67.40;;;0.50;99.90;;;0.16;62.69;97514.31;4978350;28;20191;-79
2022/01/09 09:01:48;;;;;;;153.68;70.75;;;0.50;99.90;;;0.19;62.74;97511.94;4970573;28;20124;-79
2022/01/09 09:04:15;;;;;;;144.68;67.18;;;0.60;99.90;;;0.30;62.69;97512.94;4955115;28;20087;-79
2022/01/09 09:06:40;;;;;;;145.30;70.25;;;0.60;99.90;;;0.33;62.72;97501.00;4971298;28;20042;-79
2022/01/09 09:09:07;;;;;;;156.60;72.57;;;0.70;99.90;;;0.40;63.16;97502.47;4955127;28;20049;-79
2022/01/09 09:11:34;;;;;;;153.90;68.28;;;0.70;99.90;;;0.42;62.29;97499.56;4943153;28;20050;-79
2022/01/09 09:14:01;;;;;;;158.63;70.72;;;0.80;99.90;;;0.49;62.91;97497.56;4973715;28;20050;-79
2022/01/09 09:16:28;;;;;;;162.48;72.43;;;0.80;99.90;;;0.54;62.43;97502.19;4952884;28;20414;-79
2022/01/09 09:18:54;;;;;;;158.50;72.30;;;0.90;99.90;;;0.53;62.81;97496.00;4971099;28;20046;-79
2022/01/09 09:21:19;;;;;;;159.35;70.40;;;0.90;99.90;;;0.63;62.08;97493.50;4957885;28;20085;-79
2022/01/09 09:23:46;;;;;;;154.85;69.72;;;1.00;99.90;;;0.70;62.62;97489.91;4953772;28;20152;-79
2022/01/09 09:26:12;;;;;;;165.88;71.90;;;1.10;99.90;;;0.72;62.60;97477.91;4971392;28;20042;-79
2022/01/09 09:28:38;;;;;;;154.93;73.15;;;1.10;99.90;;;0.79;62.47;97491.09;4960956;28;20038;-79
2022/01/09 09:31:04;;;;;;;143.80;71.85;;;1.20;99.90;;;0.82;62.47;97488.75;4969500;28;20043;-79
2022/01/09 09:33:30;;;;;;;152.55;71.47;;;1.20;99.90;;;0.86;62.21;97483.72;4955407;28;20056;-79
2022/01/09 09:35:59;;;;;;;167.88;80.18;;;1.30;99.90;;;0.93;62.14;97480.91;4966932;28;20121;-79
2022/01/09 09:38:25;;;;;;;159.82;74.80;;;1.30;99.90;;;1.00;62.17;97485.03;4956652;28;20046;-80
2022/01/09 09:40:51;;;;;;;153.25;74.95;;;1.40;99.90;;;1.10;61.73;97480.91;4969148;28;20413;-80
2022/01/09 09:43:17;;;;;;;159.07;76.75;;;1.50;99.90;;;1.14;61.89;97485.50;4958035;28;20035;-80
2022/01/09 09:45:43;;;;;;;178.88;79.63;;;1.60;99.90;;;1.24;61.70;97484.84;4968307;28;20449;-80
2022/01/09 09:48:09;;;;;;;157.82;78.47;;;1.60;99.90;;;1.33;61.41;97487.91;4952000;28;20048;-80
2022/01/09 09:50:35;;;;;;;159.70;78.35;;;1.70;99.90;;;1.39;61.43;97486.91;4976951;28;20411;-80
2022/01/09 09:53:02;;;;;;;169.30;80.95;;;1.80;99.90;;;1.42;61.49;97486.41;4976615;28;20144;-80
2022/01/09 09:55:28;;;;;;;174.15;82.65;;;1.80;99.90;;;1.52;61.51;97487.34;4969790;28;20145;-80
2022/01/09 09:57:55;;;;;;;148.40;77.97;;;1.90;99.90;;;1.59;61.35;97491.72;4952328;28;20057;-80
2022/01/09 10:00:21;;;;;;;198.10;92.57;;;2.00;99.90;;;1.63;61.38;97498.19;4972773;28;20034;-79
2022/01/09 10:02:54;;;;;;;194.38;91.55;;;2.00;99.90;;;1.68;61.24;97498.25;4974826;28;20501;-80